createdAt,value
2023-05-20T00:01:32.079Z,53.00
2023-05-20T00:04:00.394Z,54.10
2023-05-20T00:06:28.614Z,53.90
2023-05-20T00:08:56.810Z,54.40
2023-05-20T00:11:24.932Z,54.30
2023-05-20T00:13:54.358Z,54.90
2023-05-20T00:16:22.446Z,54.70
2023-05-20T00:18:50.692Z,54.90
2023-05-20T00:21:18.840Z,55.90
2023-05-20T00:23:46.942Z,56.00
2023-05-20T00:26:15.137Z,56.20
2023-05-20T00:28:43.189Z,57.60
2023-05-20T00:31:12.677Z,57.00
2023-05-20T00:33:41.497Z,57.70
2023-05-20T00:36:09.912Z,58.20
2023-05-20T00:38:38.046Z,58.00
2023-05-20T00:41:06.210Z,57.50
2023-05-20T00:43:34.292Z,57.80
2023-05-20T00:46:02.399Z,57.30
2023-05-20T00:48:37.710Z,58.20
2023-05-20T00:51:07.747Z,58.30
2023-05-20T00:53:36.237Z,59.50
2023-05-20T00:56:04.549Z,59.80
2023-05-20T00:58:32.688Z,60.40
2023-05-20T01:01:00.788Z,61.60
2023-05-20T01:03:29.004Z,60.40
2023-05-20T01:05:58.474Z,61.00
2023-05-20T01:08:26.912Z,61.60
2023-05-20T01:10:58.772Z,60.90
2023-05-20T01:13:30.629Z,61.40
2023-05-20T01:15:58.742Z,62.00
2023-05-20T01:18:30.262Z,62.20
2023-05-20T01:21:01.718Z,63.00
2023-05-20T01:23:35.283Z,61.90
2023-05-20T01:26:03.386Z,62.90
2023-05-20T01:28:31.412Z,63.10
2023-05-20T01:31:00.064Z,61.80
2023-05-20T01:33:28.167Z,61.80
2023-05-20T01:35:56.458Z,61.90
2023-05-20T01:38:24.586Z,61.60
2023-05-20T01:40:55.367Z,60.30
2023-05-20T01:43:23.530Z,59.90
2023-05-20T01:45:51.656Z,59.90
2023-05-20T01:48:19.802Z,60.10
2023-05-20T01:50:47.899Z,59.20
2023-05-20T01:53:16.050Z,59.60
2023-05-20T01:55:44.097Z,59.20
2023-05-20T01:58:13.679Z,58.60
2023-05-20T02:00:41.913Z,58.50
2023-05-20T02:03:10.097Z,58.30
2023-05-20T02:05:38.467Z,58.60
2023-05-20T02:08:07.006Z,59.50
2023-05-20T02:10:35.098Z,58.60
2023-05-20T02:13:03.189Z,59.20
2023-05-20T02:15:32.732Z,58.30
2023-05-20T02:18:01.004Z,58.80
2023-05-20T02:20:29.138Z,58.30
2023-05-20T02:22:57.238Z,58.90
2023-05-20T02:25:25.352Z,59.40
2023-05-20T02:27:53.425Z,58.60
2023-05-20T02:30:21.648Z,58.00
2023-05-20T02:32:51.218Z,58.70
2023-05-20T02:35:19.332Z,59.20
2023-05-20T02:37:48.443Z,59.10
2023-05-20T02:40:16.697Z,58.90
2023-05-20T02:42:44.833Z,57.90
2023-05-20T02:45:12.936Z,57.20
2023-05-20T02:47:41.094Z,57.40
2023-05-20T02:50:11.362Z,58.00
2023-05-20T02:52:40.105Z,59.00
2023-05-20T02:55:08.833Z,58.40
2023-05-20T02:57:38.407Z,58.80
2023-05-20T03:00:08.363Z,58.90
2023-05-20T03:02:36.517Z,57.60
2023-05-20T03:05:05.262Z,57.50
2023-05-20T03:07:36.309Z,57.60
2023-05-20T03:10:05.017Z,57.80
2023-05-20T03:12:33.304Z,58.20
2023-05-20T03:15:01.453Z,57.70
2023-05-20T03:17:29.599Z,57.60
2023-05-20T03:19:57.708Z,58.20
2023-05-20T03:22:25.826Z,58.40
2023-05-20T03:24:55.245Z,57.20
2023-05-20T03:27:23.346Z,57.70
2023-05-20T03:29:51.443Z,58.00
2023-05-20T03:32:19.580Z,57.90
2023-05-20T03:34:47.743Z,57.30
2023-05-20T03:37:15.886Z,57.10
2023-05-20T03:39:43.962Z,58.20
2023-05-20T03:42:13.357Z,58.30
2023-05-20T03:44:41.582Z,56.80
2023-05-20T03:47:09.637Z,57.80
2023-05-20T03:49:37.742Z,57.90
2023-05-20T03:52:06.253Z,57.80
2023-05-20T03:54:36.219Z,57.30
2023-05-20T03:57:04.405Z,57.20
2023-05-20T03:59:34.676Z,57.50
2023-05-20T04:02:02.781Z,57.40
2023-05-20T04:04:30.885Z,58.10
2023-05-20T04:07:00.665Z,57.70
2023-05-20T04:09:28.743Z,57.50
2023-05-20T04:11:57.109Z,57.20
2023-05-20T04:14:25.180Z,57.70
2023-05-20T04:16:54.840Z,57.70
2023-05-20T04:19:24.278Z,59.10
2023-05-20T04:21:52.488Z,58.70
2023-05-20T04:24:25.130Z,58.30
2023-05-20T04:26:53.330Z,58.10
2023-05-20T04:29:21.948Z,59.40
2023-05-20T04:31:50.167Z,57.70
2023-05-20T04:34:20.379Z,58.50
2023-05-20T04:36:49.154Z,58.50
2023-05-20T04:39:19.047Z,58.10
2023-05-20T04:41:48.363Z,58.40
2023-05-20T04:44:16.469Z,56.70
2023-05-20T04:46:44.814Z,56.90
2023-05-20T04:49:13.012Z,57.90
2023-05-20T04:51:43.855Z,56.90
2023-05-20T04:54:12.020Z,58.20
2023-05-20T04:56:40.459Z,57.40
2023-05-20T04:59:09.788Z,57.90
2023-05-20T05:01:38.005Z,57.40
2023-05-20T05:04:06.538Z,57.50
2023-05-20T05:06:34.979Z,56.90
2023-05-20T05:09:04.857Z,57.60
2023-05-20T05:11:33.004Z,57.00
2023-05-20T05:14:01.182Z,57.20
2023-05-20T05:16:29.336Z,57.40
2023-05-20T05:18:57.831Z,56.70
2023-05-20T05:21:26.023Z,57.00
2023-05-20T05:23:55.229Z,57.10
2023-05-20T05:26:26.562Z,56.10
2023-05-20T05:28:55.252Z,57.10
2023-05-20T05:31:23.368Z,58.10
2023-05-20T05:33:51.502Z,56.30
2023-05-20T05:36:19.648Z,56.60
2023-05-20T05:38:47.758Z,57.40
2023-05-20T05:41:16.189Z,57.20
2023-05-20T05:43:45.605Z,56.80
2023-05-20T05:46:13.786Z,57.30
2023-05-20T05:48:42.760Z,57.60
2023-05-20T05:51:10.840Z,57.20
2023-05-20T05:53:38.950Z,55.00
2023-05-20T05:56:07.776Z,56.40
2023-05-20T05:58:36.184Z,56.90
2023-05-20T06:01:05.788Z,57.40
2023-05-20T06:03:33.966Z,56.60
2023-05-20T06:06:02.129Z,57.40
2023-05-20T06:08:30.715Z,58.10
2023-05-20T06:10:58.927Z,57.90
2023-05-20T06:13:27.090Z,55.50
2023-05-20T06:15:55.191Z,56.50
2023-05-20T06:18:24.690Z,57.00
2023-05-20T06:20:56.664Z,56.40
2023-05-20T06:23:24.791Z,56.70
2023-05-20T06:25:53.059Z,56.20
2023-05-20T06:28:22.134Z,56.00
2023-05-20T06:30:50.274Z,55.30
2023-05-20T06:33:20.323Z,55.60
2023-05-20T06:35:49.850Z,55.50
2023-05-20T06:38:18.005Z,55.30
2023-05-20T06:40:46.122Z,54.40
2023-05-20T06:43:14.245Z,55.30
2023-05-20T06:45:42.377Z,55.60
2023-05-20T06:48:11.168Z,55.90
2023-05-20T06:50:39.350Z,55.70
2023-05-20T06:53:09.180Z,55.60
2023-05-20T06:55:37.485Z,54.00
2023-05-20T06:58:05.699Z,54.80
2023-05-20T07:00:33.863Z,53.60
2023-05-20T07:03:02.170Z,54.80
2023-05-20T07:05:31.582Z,54.40
2023-05-20T07:07:59.741Z,53.80
2023-05-20T07:10:29.290Z,53.50
2023-05-20T07:12:57.433Z,53.10
2023-05-20T07:15:25.560Z,52.70
2023-05-20T07:17:53.926Z,51.50
2023-05-20T07:20:22.337Z,52.50
2023-05-20T07:22:50.889Z,52.40
2023-05-20T07:25:19.247Z,52.00
2023-05-20T07:27:48.914Z,52.80
2023-05-20T07:30:17.177Z,51.70
2023-05-20T07:32:45.480Z,51.90
2023-05-20T07:35:13.544Z,52.70
2023-05-20T07:37:41.684Z,52.40
2023-05-20T07:40:10.893Z,53.00
2023-05-20T07:42:39.160Z,51.50
2023-05-20T07:45:10.244Z,50.80
2023-05-20T07:47:38.547Z,52.70
2023-05-20T07:50:07.809Z,51.30
2023-05-20T07:52:54.554Z,51.00
2023-05-20T07:55:23.932Z,52.60
2023-05-20T07:57:52.080Z,52.90
2023-05-20T08:00:23.459Z,51.20
2023-05-20T08:02:52.139Z,50.30
2023-05-20T08:05:20.465Z,50.10
2023-05-20T08:07:48.579Z,50.70
2023-05-20T08:10:16.844Z,49.40
2023-05-20T08:12:45.120Z,50.10
2023-05-20T08:15:13.537Z,50.50
2023-05-20T08:17:43.154Z,49.90
2023-05-20T08:20:12.911Z,50.70
2023-05-20T08:22:41.138Z,50.40
2023-05-20T08:25:10.459Z,50.40
2023-05-20T08:27:39.007Z,50.00
2023-05-20T08:30:10.003Z,50.00
2023-05-20T08:32:38.626Z,51.40
2023-05-20T08:35:09.367Z,52.10
2023-05-20T08:37:37.643Z,48.60
2023-05-20T08:40:06.709Z,51.20
2023-05-20T08:42:34.832Z,52.60
2023-05-20T08:45:03.004Z,48.90
2023-05-20T08:47:31.827Z,47.20
2023-05-20T08:50:00.277Z,47.00
2023-05-20T08:52:30.151Z,46.20
2023-05-20T08:54:58.414Z,46.40
2023-05-20T08:57:28.028Z,46.80
2023-05-20T08:59:58.004Z,46.10
2023-05-20T09:02:26.637Z,45.30
2023-05-20T09:04:55.495Z,46.70
2023-05-20T09:07:31.135Z,50.20
2023-05-20T09:09:59.335Z,47.80
2023-05-20T09:12:27.476Z,46.30
2023-05-20T09:14:55.703Z,44.40
2023-05-20T09:17:24.224Z,47.70
2023-05-20T09:19:52.431Z,46.90
2023-05-20T09:22:24.290Z,46.20
2023-05-20T09:24:54.059Z,46.50
2023-05-20T09:27:22.305Z,45.70
2023-05-20T09:29:50.577Z,45.90
2023-05-20T09:32:19.632Z,46.50
2023-05-20T09:34:48.279Z,45.30
2023-05-20T09:37:17.450Z,44.00
2023-05-20T09:39:49.620Z,44.70
2023-05-20T09:42:22.296Z,44.80
2023-05-20T09:44:51.169Z,45.80
2023-05-20T09:47:19.863Z,45.00
2023-05-20T09:49:48.391Z,45.60
2023-05-20T09:52:18.939Z,47.90
2023-05-20T09:54:48.528Z,43.00
2023-05-20T09:57:16.813Z,43.00
2023-05-20T09:59:46.509Z,42.80
2023-05-20T10:02:14.665Z,43.10
2023-05-20T10:04:46.519Z,42.00
2023-05-20T10:07:42.137Z,42.40
2023-05-20T10:10:18.137Z,41.60
2023-05-20T10:12:50.115Z,41.90
2023-05-20T10:15:21.995Z,41.50
2023-05-20T10:17:53.496Z,40.30
2023-05-20T10:20:21.839Z,41.30
2023-05-20T10:22:57.315Z,42.00
2023-05-20T10:25:26.671Z,43.20
2023-05-20T10:28:05.798Z,41.90
2023-05-20T10:30:36.274Z,41.20
2023-05-20T10:33:07.235Z,42.80
2023-05-20T10:35:35.793Z,42.20
2023-05-20T10:38:11.477Z,40.50
2023-05-20T10:40:39.441Z,44.20
2023-05-20T10:43:11.707Z,45.50
2023-05-20T10:45:50.897Z,44.20
2023-05-20T10:48:22.960Z,43.30
2023-05-20T10:50:51.236Z,43.20
2023-05-20T10:53:32.405Z,42.50
2023-05-20T10:56:02.115Z,42.30
2023-05-20T10:58:37.521Z,43.00
2023-05-20T11:01:07.228Z,42.00
2023-05-20T11:03:36.591Z,42.70
2023-05-20T11:06:12.882Z,43.90
2023-05-20T11:08:41.252Z,44.00
2023-05-20T11:11:10.257Z,43.50
2023-05-20T11:13:38.479Z,44.10
2023-05-20T11:16:08.509Z,42.00
2023-05-20T11:18:36.739Z,42.90
2023-05-20T11:21:05.024Z,42.20
2023-05-20T11:23:33.684Z,41.00
2023-05-20T11:26:02.471Z,40.50
2023-05-20T11:28:33.315Z,41.80
2023-05-20T11:31:01.690Z,41.70
2023-05-20T11:33:31.419Z,41.70
2023-05-20T11:35:59.641Z,42.10
2023-05-20T11:38:28.151Z,42.30
2023-05-20T11:40:58.074Z,42.40
2023-05-20T11:43:26.862Z,39.60
2023-05-20T11:45:59.456Z,40.30
2023-05-20T11:48:28.178Z,39.70
2023-05-20T11:50:59.350Z,39.90
2023-05-20T11:53:28.846Z,42.10
2023-05-20T11:55:57.365Z,41.30
2023-05-20T11:58:26.285Z,41.30
2023-05-20T12:00:59.421Z,41.30
2023-05-20T12:03:37.876Z,40.40
2023-05-20T12:06:07.759Z,39.70
2023-05-20T12:08:35.904Z,39.40
2023-05-20T12:11:04.130Z,38.50
2023-05-20T12:13:34.967Z,39.10
2023-05-20T12:16:04.407Z,41.30
2023-05-20T12:18:32.864Z,39.90
2023-05-20T12:21:01.082Z,41.00
2023-05-20T12:23:34.112Z,41.40
2023-05-20T12:26:02.460Z,39.10
2023-05-20T12:28:32.155Z,40.50
2023-05-20T12:31:01.302Z,44.60
2023-05-20T12:33:29.560Z,43.10
2023-05-20T12:36:00.856Z,40.80
2023-05-20T12:38:30.526Z,41.60
2023-05-20T12:40:58.683Z,38.90
2023-05-20T12:43:26.859Z,42.50
2023-05-20T12:45:55.065Z,42.20
2023-05-20T12:48:23.346Z,44.20
2023-05-20T12:50:51.440Z,41.00
2023-05-20T12:53:19.896Z,42.10
2023-05-20T12:55:49.485Z,42.70
2023-05-20T12:58:17.752Z,40.60
2023-05-20T13:00:46.166Z,40.00
2023-05-20T13:03:14.488Z,37.10
2023-05-20T13:05:42.778Z,38.60
2023-05-20T13:08:12.835Z,39.20
2023-05-20T13:10:41.431Z,43.10
2023-05-20T13:13:10.926Z,41.90
2023-05-20T13:15:39.180Z,42.40
2023-05-20T13:18:07.446Z,41.50
2023-05-20T13:20:35.960Z,41.00
2023-05-20T13:23:04.421Z,40.30
2023-05-20T13:25:33.028Z,39.80
2023-05-20T13:28:01.172Z,39.50
2023-05-20T13:30:30.772Z,38.80
2023-05-20T13:32:59.127Z,40.20
2023-05-20T13:35:27.287Z,40.50
2023-05-20T13:37:55.455Z,40.30
2023-05-20T13:40:23.820Z,40.30
2023-05-20T13:42:52.284Z,39.60
2023-05-20T13:45:20.505Z,41.10
2023-05-20T13:47:50.302Z,41.90
2023-05-20T13:50:18.610Z,42.70
2023-05-20T13:52:46.913Z,43.40
2023-05-20T13:55:16.007Z,41.10
2023-05-20T13:57:44.309Z,41.00
2023-05-20T14:00:13.704Z,42.80
2023-05-20T14:02:42.510Z,42.00
2023-05-20T14:05:12.362Z,40.80
2023-05-20T14:07:40.724Z,41.20
2023-05-20T14:10:11.404Z,41.10
2023-05-20T14:12:40.758Z,41.70
2023-05-20T14:15:09.921Z,39.70
2023-05-20T14:17:38.443Z,40.20
2023-05-20T14:20:08.099Z,39.00
2023-05-20T14:22:37.781Z,38.70
2023-05-20T14:25:06.787Z,39.40
2023-05-20T14:27:35.252Z,38.20
2023-05-20T14:30:03.930Z,37.90
2023-05-20T14:32:33.432Z,40.50
2023-05-20T14:35:01.689Z,40.40
2023-05-20T14:37:30.203Z,41.00
2023-05-20T14:40:00.332Z,39.80
2023-05-20T14:42:28.648Z,40.20
2023-05-20T14:44:56.732Z,39.50
2023-05-20T14:47:26.090Z,40.20
2023-05-20T14:49:54.477Z,38.60
2023-05-20T14:52:22.838Z,40.90
2023-05-20T14:54:51.277Z,40.50
2023-05-20T14:57:21.203Z,41.90
2023-05-20T14:59:50.961Z,40.60
2023-05-20T15:02:19.558Z,41.00
2023-05-20T15:04:48.779Z,40.70
2023-05-20T15:07:17.088Z,40.80
2023-05-20T15:09:45.387Z,40.80
2023-05-20T15:12:13.707Z,42.50
2023-05-20T15:14:43.490Z,41.60
2023-05-20T15:17:12.114Z,42.00
2023-05-20T15:19:41.994Z,41.30
2023-05-20T15:22:11.258Z,40.40
2023-05-20T15:24:39.423Z,40.80
2023-05-20T15:27:07.875Z,40.80
2023-05-20T15:29:37.060Z,41.10
2023-05-20T15:32:08.702Z,43.50
2023-05-20T15:34:36.942Z,43.20
2023-05-20T15:37:05.544Z,41.50
2023-05-20T15:39:37.337Z,41.10
2023-05-20T15:42:07.497Z,40.20
2023-05-20T15:44:37.477Z,40.30
2023-05-20T15:47:07.595Z,41.10
2023-05-20T15:49:35.875Z,40.90
2023-05-20T15:52:04.516Z,39.80
2023-05-20T15:54:32.949Z,40.40
2023-05-20T15:57:01.663Z,40.60
2023-05-20T15:59:29.858Z,42.70
2023-05-20T16:01:58.042Z,44.60
2023-05-20T16:04:27.701Z,43.40
2023-05-20T16:06:56.105Z,43.40
2023-05-20T16:09:24.262Z,42.60
2023-05-20T16:11:52.545Z,42.00
2023-05-20T16:14:21.191Z,42.60
2023-05-20T16:16:50.092Z,42.90
2023-05-20T16:19:18.467Z,44.30
2023-05-20T16:21:48.717Z,42.40
2023-05-20T16:24:17.585Z,43.70
2023-05-20T16:26:46.038Z,45.20
2023-05-20T16:29:16.389Z,45.20
2023-05-20T16:31:46.836Z,46.10
2023-05-20T16:34:15.849Z,44.70
2023-05-20T16:36:45.281Z,44.40
2023-05-20T16:39:15.350Z,44.70
2023-05-20T16:41:43.837Z,43.10
2023-05-20T16:44:12.230Z,43.00
2023-05-20T16:46:40.284Z,43.10
2023-05-20T16:49:08.363Z,42.40
2023-05-20T16:51:36.497Z,42.60
2023-05-20T16:54:04.925Z,42.30
2023-05-20T16:56:46.159Z,42.20
2023-05-20T16:59:16.958Z,42.70
2023-05-20T17:01:45.319Z,42.90
2023-05-20T17:04:13.755Z,42.50
2023-05-20T17:06:41.832Z,42.70
2023-05-20T17:09:09.978Z,42.90
2023-05-20T17:11:39.485Z,42.80
2023-05-20T17:14:07.548Z,46.00
2023-05-20T17:16:35.819Z,44.60
2023-05-20T17:19:04.485Z,44.60
2023-05-20T17:21:34.676Z,45.00
2023-05-20T17:24:02.852Z,46.20
2023-05-20T17:26:35.795Z,44.80
2023-05-20T17:29:05.550Z,45.70
2023-05-20T17:31:42.495Z,44.20
2023-05-20T17:34:11.224Z,44.50
2023-05-20T17:36:39.395Z,45.70
2023-05-20T17:39:09.696Z,46.20
2023-05-20T17:41:37.946Z,46.00
2023-05-20T17:44:07.950Z,44.60
2023-05-20T17:46:36.253Z,44.60
2023-05-20T17:49:04.453Z,44.60
2023-05-20T17:51:32.857Z,44.40
2023-05-20T17:54:01.000Z,43.90
2023-05-20T17:56:29.573Z,43.50
2023-05-20T17:58:57.940Z,43.10
2023-05-20T18:01:27.942Z,45.20
2023-05-20T18:03:57.313Z,46.80
2023-05-20T18:06:26.537Z,44.50
2023-05-20T18:08:55.930Z,43.90
2023-05-20T18:11:27.236Z,43.70
2023-05-20T18:13:58.721Z,43.60
2023-05-20T18:16:29.338Z,44.80
2023-05-20T18:18:58.103Z,46.10
2023-05-20T18:21:26.626Z,45.40
2023-05-20T18:23:54.691Z,45.80
2023-05-20T18:26:23.140Z,45.80
2023-05-20T18:28:51.260Z,45.40
2023-05-20T18:31:19.341Z,48.00
2023-05-20T18:33:48.813Z,48.30
2023-05-20T18:36:17.372Z,49.60
2023-05-20T18:38:46.555Z,50.10
2023-05-20T18:41:14.671Z,50.90
2023-05-20T18:43:42.820Z,52.30
2023-05-20T18:46:10.974Z,52.00
2023-05-20T18:48:39.095Z,52.40
2023-05-20T18:51:08.674Z,52.10
2023-05-20T18:53:37.029Z,51.60
2023-05-20T18:56:06.132Z,51.20
2023-05-20T18:58:34.399Z,53.10
2023-05-20T19:01:02.688Z,52.00
2023-05-20T19:03:31.074Z,50.50
2023-05-20T19:05:59.243Z,50.90
2023-05-20T19:08:29.404Z,50.30
2023-05-20T19:10:57.497Z,50.90
2023-05-20T19:13:25.604Z,52.20
2023-05-20T19:15:53.708Z,53.90
2023-05-20T19:18:22.157Z,53.70
2023-05-20T19:20:50.540Z,53.80
2023-05-20T19:23:18.641Z,52.10
2023-05-20T19:25:48.102Z,52.20
2023-05-20T19:28:16.502Z,52.10
2023-05-20T19:30:44.959Z,52.10
2023-05-20T19:33:13.105Z,52.60
2023-05-20T19:35:41.349Z,52.50
2023-05-20T19:38:09.431Z,52.80
2023-05-20T19:40:37.826Z,53.20
2023-05-20T19:43:07.807Z,54.40
2023-05-20T19:45:36.978Z,53.50
2023-05-20T19:48:07.160Z,53.70
2023-05-20T19:50:37.571Z,54.30
2023-05-20T19:53:07.481Z,54.30
2023-05-20T19:55:36.418Z,53.90
2023-05-20T19:58:05.051Z,53.70
2023-05-20T20:00:34.983Z,53.70
2023-05-20T20:03:06.476Z,53.00
2023-05-20T20:05:35.146Z,54.80
2023-05-20T20:08:03.866Z,53.80
2023-05-20T20:10:31.949Z,54.00
2023-05-20T20:13:00.077Z,54.50
2023-05-20T20:15:29.280Z,54.80
2023-05-20T20:17:58.808Z,54.90
2023-05-20T20:20:27.723Z,54.80
2023-05-20T20:22:56.489Z,55.60
2023-05-20T20:25:26.727Z,55.70
2023-05-20T20:27:54.840Z,55.20
2023-05-20T20:30:22.934Z,55.40
2023-05-20T20:32:52.559Z,56.10
2023-05-20T20:35:23.505Z,55.50
2023-05-20T20:37:54.414Z,55.30
2023-05-20T20:40:22.653Z,54.70
2023-05-20T20:42:50.755Z,53.70
2023-05-20T20:45:18.983Z,54.70
2023-05-20T20:47:47.110Z,53.80
2023-05-20T20:50:15.210Z,53.00
2023-05-20T20:52:44.761Z,55.20
2023-05-20T20:55:13.183Z,54.80
2023-05-20T20:57:42.067Z,53.50
2023-05-20T21:00:16.643Z,55.60
2023-05-20T21:02:44.788Z,55.90
2023-05-20T21:05:14.491Z,56.30
2023-05-20T21:07:49.783Z,58.70
2023-05-20T21:10:18.146Z,59.00
2023-05-20T21:12:46.363Z,58.20
2023-05-20T21:15:15.123Z,59.00
2023-05-20T21:17:43.396Z,59.50
2023-05-20T21:20:12.802Z,59.70
2023-05-20T21:22:41.852Z,59.60
2023-05-20T21:25:11.521Z,60.40
2023-05-20T21:27:39.807Z,60.70
2023-05-20T21:30:09.190Z,61.10
2023-05-20T21:32:37.420Z,61.40
2023-05-20T21:35:06.090Z,62.30
2023-05-20T21:37:34.209Z,62.50
2023-05-20T21:40:02.311Z,61.70
2023-05-20T21:42:31.737Z,60.40
2023-05-20T21:44:59.885Z,61.10
2023-05-20T21:47:28.056Z,61.60
2023-05-20T21:49:56.172Z,62.10
2023-05-20T21:52:24.277Z,62.20
2023-05-20T21:54:52.426Z,61.40
2023-05-20T21:57:20.689Z,61.90
2023-05-20T21:59:50.300Z,62.50
2023-05-20T22:02:18.399Z,60.20
2023-05-20T22:04:46.553Z,60.50
2023-05-20T22:07:14.811Z,61.70
2023-05-20T22:09:42.891Z,61.60
2023-05-20T22:12:11.320Z,63.20
2023-05-20T22:14:39.446Z,63.10
2023-05-20T22:17:08.974Z,63.90
2023-05-20T22:19:38.120Z,63.20
2023-05-20T22:22:06.287Z,62.50
2023-05-20T22:24:34.394Z,63.70
2023-05-20T22:27:04.000Z,64.00
2023-05-20T22:29:32.718Z,64.40
2023-05-20T22:32:00.982Z,64.70
2023-05-20T22:34:30.528Z,65.00
2023-05-20T22:36:58.660Z,64.40
2023-05-20T22:39:26.763Z,64.00
2023-05-20T22:41:54.879Z,65.20
2023-05-20T22:44:23.016Z,64.90
2023-05-20T22:46:51.181Z,65.00
2023-05-20T22:49:19.950Z,65.80
2023-05-20T22:51:50.220Z,64.80
2023-05-20T22:54:18.392Z,65.60
2023-05-20T22:56:46.475Z,65.50
2023-05-20T22:59:14.621Z,65.20
2023-05-20T23:01:46.119Z,65.40
2023-05-20T23:04:14.447Z,65.10
2023-05-20T23:06:42.623Z,65.80
2023-05-20T23:09:12.512Z,65.50
2023-05-20T23:11:40.603Z,64.40
2023-05-20T23:14:08.761Z,64.90
2023-05-20T23:16:40.227Z,64.60
2023-05-20T23:19:08.384Z,66.10
2023-05-20T23:21:37.341Z,66.20
2023-05-20T23:24:06.149Z,65.80
2023-05-20T23:26:37.839Z,66.40
2023-05-20T23:29:06.278Z,66.30
2023-05-20T23:31:34.350Z,65.70
2023-05-20T23:34:03.739Z,64.90
2023-05-20T23:36:35.200Z,66.60
2023-05-20T23:39:03.994Z,66.60
2023-05-20T23:41:32.435Z,66.50
2023-05-20T23:44:02.602Z,67.10
2023-05-20T23:46:31.494Z,66.60
2023-05-20T23:49:01.833Z,67.00
2023-05-20T23:51:29.973Z,66.00
2023-05-20T23:53:58.045Z,65.10
2023-05-20T23:56:26.116Z,65.90
2023-05-20T23:58:54.206Z,66.50
